createdAt,value
2022-08-18T00:00:30.690Z,30.52
2022-08-18T00:03:53.403Z,30.54
2022-08-18T00:06:31.377Z,30.51
2022-08-18T00:09:21.856Z,30.44
2022-08-18T00:12:19.163Z,30.59
2022-08-18T00:15:12.195Z,30.57
2022-08-18T00:18:01.639Z,30.54
2022-08-18T00:20:51.553Z,30.57
2022-08-18T00:23:41.028Z,30.50
2022-08-18T00:26:34.860Z,30.43
2022-08-18T00:29:26.734Z,30.51
2022-08-18T00:32:24.049Z,30.62
2022-08-18T00:35:23.218Z,30.56
2022-08-18T00:38:25.064Z,30.32
2022-08-18T00:41:15.922Z,30.33
2022-08-18T00:44:05.829Z,30.32
2022-08-18T00:46:55.528Z,30.34
2022-08-18T00:49:47.034Z,30.36
2022-08-18T00:52:38.496Z,30.43
2022-08-18T00:55:30.431Z,30.51
2022-08-18T00:58:30.856Z,30.60
2022-08-18T01:01:26.960Z,30.60
2022-08-18T01:04:24.276Z,30.70
2022-08-18T01:07:22.743Z,30.71
2022-08-18T01:10:15.892Z,30.67
2022-08-18T01:13:05.790Z,30.67
2022-08-18T01:15:56.092Z,30.71
2022-08-18T01:19:03.529Z,30.76
2022-08-18T01:22:02.279Z,30.95
2022-08-18T01:25:11.858Z,30.92
2022-08-18T01:28:04.626Z,30.92
2022-08-18T01:30:57.108Z,31.23
2022-08-18T01:33:47.333Z,31.01
2022-08-18T01:36:41.802Z,31.15
2022-08-18T01:41:23.961Z,31.07
2022-08-18T01:42:46.720Z,31.15
2022-08-18T01:45:36.685Z,31.19
2022-08-18T01:48:26.276Z,31.22
2022-08-18T01:51:17.603Z,31.28
2022-08-18T01:54:08.190Z,31.31
2022-08-18T01:56:58.867Z,31.32
2022-08-18T01:59:48.255Z,31.37
2022-08-18T02:02:39.032Z,31.43
2022-08-18T02:06:02.160Z,31.59
2022-08-18T02:08:53.857Z,31.50
2022-08-18T02:11:43.835Z,31.62
2022-08-18T02:14:34.237Z,31.67
2022-08-18T02:17:23.999Z,31.73
2022-08-18T02:20:17.947Z,31.81
2022-08-18T02:23:07.179Z,31.79
2022-08-18T02:25:57.001Z,31.83
2022-08-18T02:28:46.890Z,31.83
2022-08-18T02:31:36.421Z,31.78
2022-08-18T02:34:26.592Z,31.95
2022-08-18T02:37:16.672Z,32.04
2022-08-18T02:40:07.830Z,32.10
2022-08-18T02:42:57.438Z,32.13
2022-08-18T02:45:47.633Z,32.18
2022-08-18T02:48:37.942Z,32.12
2022-08-18T02:51:27.722Z,32.24
2022-08-18T02:54:17.910Z,32.32
2022-08-18T02:57:11.788Z,32.50
2022-08-18T03:00:03.170Z,32.51
2022-08-18T03:02:54.406Z,32.61
2022-08-18T03:05:44.100Z,32.56
2022-08-18T03:08:34.282Z,32.65
2022-08-18T03:11:28.687Z,32.77
2022-08-18T03:14:18.786Z,32.70
2022-08-18T03:17:11.424Z,32.90
2022-08-18T03:20:00.983Z,32.93
2022-08-18T03:22:53.069Z,32.90
2022-08-18T03:25:50.275Z,33.15
2022-08-18T03:28:45.844Z,33.26
2022-08-18T03:31:39.426Z,33.23
2022-08-18T03:34:28.876Z,33.26
2022-08-18T03:37:19.575Z,33.26
2022-08-18T03:40:12.031Z,33.35
2022-08-18T03:43:49.599Z,33.47
2022-08-18T03:46:19.828Z,33.53
2022-08-18T03:49:10.690Z,33.54
2022-08-18T03:52:01.747Z,33.64
2022-08-18T03:54:52.402Z,33.70
2022-08-18T03:57:42.152Z,33.73
2022-08-18T04:00:35.146Z,33.94
2022-08-18T04:03:24.620Z,34.05
2022-08-18T04:06:29.786Z,34.20
2022-08-18T04:09:21.206Z,34.11
2022-08-18T04:12:17.517Z,34.30
2022-08-18T04:15:07.639Z,34.30
2022-08-18T04:18:03.960Z,34.46
2022-08-18T04:20:54.723Z,34.36
2022-08-18T04:23:49.873Z,34.45
2022-08-18T04:26:43.824Z,34.67
2022-08-18T04:29:34.127Z,34.76
2022-08-18T04:32:29.784Z,34.84
2022-08-18T04:35:21.092Z,34.49
2022-08-18T04:38:11.251Z,35.04
2022-08-18T04:41:00.857Z,35.16
2022-08-18T04:43:54.459Z,35.22
2022-08-18T04:46:48.632Z,35.27
2022-08-18T04:49:39.439Z,35.46
2022-08-18T04:52:47.105Z,35.25
2022-08-18T04:55:37.524Z,35.40
2022-08-18T04:58:29.065Z,35.34
2022-08-18T05:01:18.954Z,35.46
2022-08-18T05:04:09.264Z,35.63
2022-08-18T05:06:59.395Z,35.29
2022-08-18T05:09:48.976Z,35.67
2022-08-18T05:12:39.190Z,35.38
2022-08-18T05:15:34.797Z,35.68
2022-08-18T05:18:40.340Z,36.14
2022-08-18T05:21:32.251Z,36.27
2022-08-18T05:24:28.483Z,36.40
2022-08-18T05:27:19.975Z,36.12
2022-08-18T05:30:12.744Z,36.20
2022-08-18T05:33:04.655Z,36.15
2022-08-18T05:36:04.860Z,36.28
2022-08-18T05:38:54.604Z,36.55
2022-08-18T05:41:50.632Z,36.82
2022-08-18T05:44:50.136Z,36.85
2022-08-18T05:47:40.169Z,36.99
2022-08-18T05:50:34.096Z,37.16
2022-08-18T05:53:43.486Z,37.14
2022-08-18T05:56:50.355Z,37.26
2022-08-18T05:59:42.704Z,37.14
2022-08-18T06:02:56.746Z,37.23
2022-08-18T06:05:59.540Z,37.54
2022-08-18T06:09:00.678Z,37.64
2022-08-18T06:11:51.999Z,37.48
2022-08-18T06:14:42.291Z,37.38
2022-08-18T06:17:51.328Z,37.40
2022-08-18T06:20:58.017Z,37.45
2022-08-18T06:24:01.850Z,37.49
2022-08-18T06:27:13.299Z,37.58
2022-08-18T06:30:19.651Z,37.77
2022-08-18T06:33:11.909Z,37.52
2022-08-18T06:36:13.769Z,37.67
2022-08-18T06:39:27.789Z,37.97
2022-08-18T06:42:31.713Z,38.00
2022-08-18T06:45:33.843Z,37.81
2022-08-18T06:48:46.703Z,38.09
2022-08-18T06:51:40.637Z,38.16
2022-08-18T06:54:32.294Z,38.15
2022-08-18T06:57:41.445Z,38.37
2022-08-18T07:00:35.223Z,38.27
2022-08-18T07:03:41.573Z,38.43
2022-08-18T07:06:32.495Z,38.40
2022-08-18T07:09:23.165Z,38.20
2022-08-18T07:12:05.713Z,38.15
2022-08-18T07:14:44.027Z,38.09
2022-08-18T07:17:42.826Z,38.12
2022-08-18T07:20:27.404Z,38.31
2022-08-18T07:23:08.126Z,38.15
2022-08-18T07:25:46.131Z,38.12
2022-08-18T07:28:38.084Z,38.14
2022-08-18T07:31:18.948Z,38.20
2022-08-18T07:33:54.554Z,38.41
2022-08-18T07:36:28.975Z,38.12
2022-08-18T07:39:07.199Z,38.09
2022-08-18T07:41:45.675Z,38.41
2022-08-18T07:44:49.147Z,37.91
2022-08-18T07:47:21.613Z,38.21
2022-08-18T07:50:15.743Z,38.33
2022-08-18T07:52:54.091Z,38.31
2022-08-18T07:55:34.959Z,38.37
2022-08-18T07:58:25.497Z,38.42
2022-08-18T08:01:05.932Z,38.39
2022-08-18T08:04:05.294Z,38.63
2022-08-18T08:07:00.582Z,38.64
2022-08-18T08:09:54.499Z,38.62
2022-08-18T08:12:32.101Z,38.73
2022-08-18T08:15:32.063Z,38.86
2022-08-18T08:18:25.175Z,38.78
2022-08-18T08:20:58.643Z,38.78
2022-08-18T08:24:04.153Z,38.66
2022-08-18T08:26:58.291Z,38.65
2022-08-18T08:29:39.627Z,38.62
2022-08-18T08:32:11.721Z,38.77
2022-08-18T08:34:49.687Z,38.93
2022-08-18T08:37:31.577Z,38.81
2022-08-18T08:40:19.389Z,38.55
2022-08-18T08:43:13.854Z,38.77
2022-08-18T08:46:16.516Z,38.73
2022-08-18T08:49:04.016Z,38.74
2022-08-18T08:52:00.253Z,38.74
2022-08-18T08:54:44.657Z,38.74
2022-08-18T08:57:15.932Z,38.76
2022-08-18T08:59:49.856Z,38.72
2022-08-18T09:02:48.854Z,38.77
2022-08-18T09:05:41.431Z,38.70
2022-08-18T09:08:16.512Z,38.55
2022-08-18T09:11:07.833Z,38.53
2022-08-18T09:13:57.714Z,38.66
2022-08-18T09:17:01.583Z,38.61
2022-08-18T09:19:53.583Z,38.65
2022-08-18T09:22:35.133Z,38.51
2022-08-18T09:25:13.898Z,38.49
2022-08-18T09:28:09.876Z,38.31
2022-08-18T09:30:56.158Z,38.37
2022-08-18T09:33:57.745Z,38.55
2022-08-18T09:37:00.809Z,38.38
2022-08-18T09:39:57.943Z,38.31
2022-08-18T09:42:49.978Z,38.36
2022-08-18T09:46:01.032Z,38.16
2022-08-18T09:48:43.324Z,38.11
2022-08-18T09:51:17.607Z,38.05
2022-08-18T09:53:56.705Z,38.10
2022-08-18T09:56:54.295Z,38.16
2022-08-18T09:59:40.025Z,38.03
2022-08-18T10:02:24.166Z,37.83
2022-08-18T10:05:20.294Z,37.79
2022-08-18T10:08:00.172Z,37.87
2022-08-18T10:11:00.922Z,37.59
2022-08-18T10:14:08.195Z,37.44
2022-08-18T10:17:23.807Z,37.41
2022-08-18T10:20:25.772Z,37.36
2022-08-18T10:23:02.063Z,37.40
2022-08-18T10:25:42.660Z,37.45
2022-08-18T10:28:30.983Z,37.20
2022-08-18T10:33:56.491Z,37.08
2022-08-18T10:36:40.565Z,37.31
2022-08-18T10:39:17.946Z,37.28
2022-08-18T10:42:01.939Z,37.24
2022-08-18T10:44:32.693Z,37.18
2022-08-18T10:47:11.959Z,37.00
2022-08-18T10:49:46.841Z,37.01
2022-08-18T10:52:54.483Z,37.22
2022-08-18T10:55:48.863Z,37.13
2022-08-18T10:58:39.451Z,37.13
2022-08-18T11:01:45.006Z,37.19
2022-08-18T11:04:38.613Z,37.15
2022-08-18T11:07:18.246Z,36.97
2022-08-18T11:09:57.738Z,37.03
2022-08-18T11:13:08.686Z,36.99
2022-08-18T11:16:04.266Z,37.14
2022-08-18T11:18:45.498Z,37.03
2022-08-18T11:21:55.912Z,37.15
2022-08-18T11:24:29.798Z,37.12
2022-08-18T11:27:09.833Z,36.98
2022-08-18T11:29:45.544Z,36.91
2022-08-18T11:32:21.607Z,37.10
2022-08-18T11:35:00.587Z,37.01
2022-08-18T11:37:51.250Z,36.77
2022-08-18T11:43:42.621Z,37.03
2022-08-18T11:46:30.314Z,37.12
2022-08-18T11:49:04.521Z,36.89
2022-08-18T11:51:35.765Z,36.93
2022-08-18T11:57:46.719Z,37.09
2022-08-18T12:00:54.890Z,36.98
2022-08-18T12:03:38.374Z,36.93
2022-08-18T12:06:31.666Z,36.86
2022-08-18T12:09:05.312Z,36.56
2022-08-18T12:11:41.322Z,36.59
2022-08-18T12:14:31.466Z,36.60
2022-08-18T12:17:04.358Z,36.72
2022-08-18T12:19:35.768Z,36.48
2022-08-18T12:22:17.850Z,36.78
2022-08-18T12:24:48.225Z,36.68
2022-08-18T12:27:22.386Z,36.49
2022-08-18T12:29:57.516Z,36.22
2022-08-18T12:32:48.833Z,35.98
2022-08-18T12:38:43.172Z,36.13
2022-08-18T12:41:13.653Z,35.91
2022-08-18T12:43:42.735Z,35.85
2022-08-18T12:46:27.642Z,35.73
2022-08-18T12:48:56.823Z,35.66
2022-08-18T12:51:30.408Z,35.58
2022-08-18T12:54:00.334Z,35.50
2022-08-18T12:59:19.051Z,35.28
2022-08-18T13:01:48.795Z,35.25
2022-08-18T13:04:18.831Z,35.17
2022-08-18T13:07:00.801Z,35.37
2022-08-18T13:09:52.682Z,35.24
2022-08-18T13:12:24.768Z,34.95
2022-08-18T13:14:55.883Z,34.96
2022-08-18T13:17:30.171Z,34.84
2022-08-18T13:20:10.322Z,34.92
2022-08-18T13:22:43.260Z,34.85
2022-08-18T13:25:32.070Z,34.94
2022-08-18T13:28:02.449Z,34.77
2022-08-18T13:30:33.160Z,34.82
2022-08-18T13:33:55.911Z,34.75
2022-08-18T13:35:55.403Z,34.66
2022-08-18T13:38:27.686Z,34.71
2022-08-18T13:41:00.500Z,34.73
2022-08-18T13:43:32.442Z,34.88
2022-08-18T13:46:04.635Z,34.64
2022-08-18T13:48:34.907Z,34.65
2022-08-18T13:51:05.258Z,34.57
2022-08-18T13:53:37.528Z,34.50
2022-08-18T13:56:21.482Z,34.48
2022-08-18T13:59:01.497Z,34.45
2022-08-18T14:01:44.464Z,34.41
2022-08-18T14:04:23.068Z,34.31
2022-08-18T14:06:59.843Z,34.32
2022-08-18T14:09:37.358Z,34.29
2022-08-18T14:12:15.922Z,34.40
2022-08-18T14:14:56.953Z,34.51
2022-08-18T14:17:27.669Z,34.41
2022-08-18T14:20:21.817Z,34.39
2022-08-18T14:23:13.687Z,34.40
2022-08-18T14:26:01.710Z,34.27
2022-08-18T14:28:32.556Z,34.28
2022-08-18T14:31:04.677Z,34.32
2022-08-18T14:33:51.542Z,34.23
2022-08-18T14:36:29.777Z,34.19
2022-08-18T14:39:01.490Z,34.35
2022-08-18T14:41:31.432Z,34.23
2022-08-18T14:44:11.402Z,34.19
2022-08-18T14:46:42.024Z,34.20
2022-08-18T14:49:28.389Z,34.25
2022-08-18T14:52:02.120Z,34.34
2022-08-18T14:54:32.395Z,34.24
2022-08-18T14:57:04.003Z,34.16
2022-08-18T14:59:34.609Z,34.16
2022-08-18T15:02:13.250Z,34.28
2022-08-18T15:04:55.955Z,34.24
2022-08-18T15:07:25.950Z,34.16
2022-08-18T15:10:15.560Z,34.13
2022-08-18T15:12:46.081Z,34.07
2022-08-18T15:15:17.909Z,34.07
2022-08-18T15:17:49.967Z,34.25
2022-08-18T15:20:29.423Z,33.86
2022-08-18T15:23:24.994Z,33.79
2022-08-18T15:25:59.060Z,33.85
2022-08-18T15:28:33.919Z,33.78
2022-08-18T15:34:07.646Z,33.77
2022-08-18T15:36:41.791Z,33.69
2022-08-18T15:39:11.247Z,33.75
2022-08-18T15:41:47.633Z,33.83
2022-08-18T15:44:20.906Z,33.80
2022-08-18T15:46:51.199Z,33.75
2022-08-18T15:49:23.057Z,33.72
2022-08-18T15:51:52.781Z,33.76
2022-08-18T15:54:22.060Z,33.77
2022-08-18T15:56:58.133Z,33.73
2022-08-18T15:59:39.979Z,33.85
2022-08-18T16:02:11.745Z,33.78
2022-08-18T16:04:46.576Z,33.81
2022-08-18T16:07:17.913Z,33.70
2022-08-18T16:09:54.274Z,33.64
2022-08-18T16:12:23.492Z,33.60
2022-08-18T16:14:54.455Z,33.61
2022-08-18T16:17:29.894Z,33.60
2022-08-18T16:20:02.118Z,33.54
2022-08-18T16:22:33.365Z,33.45
2022-08-18T16:25:04.619Z,33.44
2022-08-18T16:27:35.451Z,33.40
2022-08-18T16:30:24.647Z,33.61
2022-08-18T16:32:54.417Z,33.45
2022-08-18T16:35:24.465Z,33.43
2022-08-18T16:37:53.581Z,33.37
2022-08-18T16:40:22.696Z,33.33
2022-08-18T16:42:57.117Z,33.32
2022-08-18T16:45:26.204Z,33.29
2022-08-18T16:47:56.018Z,33.27
2022-08-18T16:50:26.917Z,33.31
2022-08-18T16:52:56.429Z,33.34
2022-08-18T16:55:25.951Z,33.27
2022-08-18T16:58:15.589Z,33.28
2022-08-18T17:01:18.823Z,33.31
2022-08-18T17:04:14.852Z,33.30
2022-08-18T17:06:50.518Z,33.34
2022-08-18T17:09:20.965Z,33.38
2022-08-18T17:11:52.052Z,33.28
2022-08-18T17:14:23.293Z,33.36
2022-08-18T17:16:56.903Z,33.30
2022-08-18T17:19:28.946Z,33.28
2022-08-18T17:21:58.305Z,33.26
2022-08-18T17:24:31.823Z,33.26
2022-08-18T17:27:26.246Z,33.40
2022-08-18T17:30:01.563Z,33.33
2022-08-18T17:33:03.241Z,33.39
2022-08-18T17:35:35.653Z,33.38
2022-08-18T17:38:18.952Z,33.36
2022-08-18T17:40:52.286Z,33.40
2022-08-18T17:43:24.820Z,33.31
2022-08-18T17:46:06.777Z,33.37
2022-08-18T17:48:44.404Z,33.47
2022-08-18T17:51:43.529Z,33.37
2022-08-18T17:54:28.698Z,33.45
2022-08-18T17:57:17.708Z,33.48
2022-08-18T17:59:59.553Z,33.33
2022-08-18T18:02:32.326Z,33.27
2022-08-18T18:05:06.569Z,33.30
2022-08-18T18:07:58.730Z,33.34
2022-08-18T18:10:56.447Z,33.28
2022-08-18T18:13:36.463Z,33.16
2022-08-18T18:16:35.776Z,33.34
2022-08-18T18:19:08.580Z,33.22
2022-08-18T18:21:55.395Z,33.17
2022-08-18T18:24:34.074Z,33.16
2022-08-18T18:27:03.327Z,33.04
2022-08-18T18:29:38.433Z,33.03
2022-08-18T18:32:28.429Z,33.05
2022-08-18T18:35:06.397Z,33.06
2022-08-18T18:37:47.211Z,33.02
2022-08-18T18:40:39.872Z,33.02
2022-08-18T18:43:35.445Z,33.02
2022-08-18T18:46:24.247Z,33.00
2022-08-18T18:49:24.439Z,33.04
2022-08-18T18:52:27.808Z,33.05
2022-08-18T18:55:07.820Z,33.01
2022-08-18T18:57:45.992Z,33.00
2022-08-18T19:00:54.046Z,32.99
2022-08-18T19:03:39.556Z,33.01
2022-08-18T19:06:50.418Z,33.06
2022-08-18T19:09:50.106Z,33.03
2022-08-18T19:12:26.045Z,32.93
2022-08-18T19:15:09.326Z,33.02
2022-08-18T19:17:52.707Z,32.91
2022-08-18T19:20:29.133Z,32.93
2022-08-18T19:23:29.847Z,32.97
2022-08-18T19:26:08.174Z,32.91
2022-08-18T19:29:12.796Z,32.99
2022-08-18T19:31:45.868Z,32.84
2022-08-18T19:34:31.211Z,32.92
2022-08-18T19:37:18.368Z,32.87
2022-08-18T19:40:05.340Z,32.92
2022-08-18T19:42:43.329Z,32.85
2022-08-18T19:45:58.976Z,32.93
2022-08-18T19:48:48.478Z,32.85
2022-08-18T19:51:41.040Z,32.88
2022-08-18T19:54:34.233Z,32.86
2022-08-18T19:57:14.699Z,32.77
2022-08-18T19:59:49.084Z,32.77
2022-08-18T20:02:42.326Z,32.73
2022-08-18T20:05:30.338Z,32.80
2022-08-18T20:08:30.083Z,32.76
2022-08-18T20:11:14.003Z,32.74
2022-08-18T20:13:45.821Z,32.70
2022-08-18T20:16:45.193Z,32.74
2022-08-18T20:19:40.797Z,32.80
2022-08-18T20:22:24.499Z,32.64
2022-08-18T20:25:06.621Z,32.59
2022-08-18T20:28:14.110Z,32.72
2022-08-18T20:30:54.519Z,32.69
2022-08-18T20:33:27.002Z,32.59
2022-08-18T20:36:29.301Z,32.65
2022-08-18T20:39:01.355Z,32.54
2022-08-18T20:41:30.654Z,32.44
2022-08-18T20:44:09.180Z,32.45
2022-08-18T20:46:52.864Z,32.59
2022-08-18T20:49:39.706Z,32.57
2022-08-18T20:52:38.620Z,32.55
2022-08-18T20:55:22.746Z,32.55
2022-08-18T20:57:56.015Z,32.34
2022-08-18T21:00:27.311Z,32.41
2022-08-18T21:03:00.650Z,32.40
2022-08-18T21:05:39.016Z,32.46
2022-08-18T21:08:32.742Z,32.37
2022-08-18T21:11:05.589Z,32.38
2022-08-18T21:13:44.641Z,32.39
2022-08-18T21:16:15.095Z,32.39
2022-08-18T21:19:20.664Z,32.48
2022-08-18T21:21:52.786Z,32.39
2022-08-18T21:24:39.941Z,32.46
2022-08-18T21:27:13.784Z,32.45
2022-08-18T21:29:49.839Z,32.30
2022-08-18T21:32:30.132Z,32.41
2022-08-18T21:35:10.639Z,32.35
2022-08-18T21:37:42.702Z,32.37
2022-08-18T21:40:12.344Z,32.31
2022-08-18T21:42:44.726Z,32.41
2022-08-18T21:45:22.843Z,32.57
2022-08-18T21:47:58.833Z,32.38
2022-08-18T21:50:30.685Z,32.43
2022-08-18T21:53:17.225Z,32.48
2022-08-18T21:55:55.980Z,32.44
2022-08-18T21:58:35.498Z,32.44
2022-08-18T22:01:26.205Z,32.47
2022-08-18T22:04:01.343Z,32.31
2022-08-18T22:06:36.402Z,32.38
2022-08-18T22:09:29.898Z,32.43
2022-08-18T22:13:02.104Z,32.42
2022-08-18T22:15:31.872Z,32.21
2022-08-18T22:18:38.884Z,32.36
2022-08-18T22:21:37.089Z,32.34
2022-08-18T22:24:21.495Z,32.29
2022-08-18T22:31:12.952Z,32.13
2022-08-18T22:33:57.593Z,32.27
2022-08-18T22:36:38.082Z,32.27
2022-08-18T22:39:13.661Z,32.18
2022-08-18T22:41:56.169Z,32.10
2022-08-18T22:44:31.768Z,32.01
2022-08-18T22:47:13.307Z,32.20
2022-08-18T22:49:58.397Z,32.10
2022-08-18T22:52:32.260Z,32.03
2022-08-18T22:55:08.558Z,32.01
2022-08-18T22:57:44.790Z,32.13
2022-08-18T23:00:24.626Z,32.09
2022-08-18T23:03:07.521Z,32.06
2022-08-18T23:05:37.477Z,32.05
2022-08-18T23:08:06.683Z,32.15
2022-08-18T23:10:35.896Z,32.07
2022-08-18T23:13:04.825Z,32.00
2022-08-18T23:15:51.312Z,32.07
2022-08-18T23:18:22.474Z,32.13
2022-08-18T23:21:00.060Z,32.10
2022-08-18T23:23:31.969Z,32.07
2022-08-18T23:26:04.314Z,31.99
2022-08-18T23:28:33.482Z,32.02
2022-08-18T23:31:02.411Z,31.98
2022-08-18T23:33:31.825Z,31.97
2022-08-18T23:36:00.577Z,31.85
2022-08-18T23:38:31.681Z,31.89
2022-08-18T23:41:01.091Z,31.72
2022-08-18T23:43:30.660Z,31.82
2022-08-18T23:45:59.766Z,31.86
2022-08-18T23:48:51.109Z,31.65
2022-08-18T23:51:52.021Z,31.83
2022-08-18T23:54:27.164Z,31.88
2022-08-18T23:56:56.354Z,31.72
2022-08-18T23:59:27.088Z,31.77
